createdAt,value
2018-07-27T00:02:00.544Z,99.90
2018-07-27T00:04:28.957Z,99.90
2018-07-27T00:06:57.471Z,99.90
2018-07-27T00:09:26.799Z,99.90
2018-07-27T00:11:55.581Z,99.90
2018-07-27T00:14:24.412Z,99.90
2018-07-27T00:16:52.820Z,99.90
2018-07-27T00:19:21.221Z,99.90
2018-07-27T00:21:50.017Z,99.90
2018-07-27T00:24:18.562Z,99.90
2018-07-27T00:26:46.998Z,99.90
2018-07-27T00:29:15.451Z,99.90
2018-07-27T00:31:43.877Z,99.90
2018-07-27T00:34:12.260Z,99.90
2018-07-27T00:36:41.052Z,99.90
2018-07-27T00:39:11.005Z,99.90
2018-07-27T00:41:40.173Z,99.90
2018-07-27T00:44:09.000Z,99.90
2018-07-27T00:46:37.385Z,99.90
2018-07-27T00:49:06.321Z,99.90
2018-07-27T00:51:34.753Z,99.90
2018-07-27T00:54:05.794Z,99.90
2018-07-27T00:56:34.325Z,99.90
2018-07-27T00:59:02.737Z,99.90
2018-07-27T01:01:32.053Z,99.90
2018-07-27T01:04:00.494Z,99.90
2018-07-27T01:06:28.906Z,99.90
2018-07-27T01:08:57.302Z,99.90
2018-07-27T01:11:25.712Z,99.90
2018-07-27T01:13:54.145Z,99.90
2018-07-27T01:16:23.404Z,99.90
2018-07-27T01:18:51.881Z,99.90
2018-07-27T01:21:20.321Z,99.90
2018-07-27T01:23:48.706Z,99.90
2018-07-27T01:26:17.109Z,99.90
2018-07-27T01:28:45.496Z,99.90
2018-07-27T01:31:13.925Z,99.90
2018-07-27T01:33:42.393Z,99.90
2018-07-27T01:36:10.831Z,99.90
2018-07-27T01:38:39.267Z,99.90
2018-07-27T01:41:07.853Z,99.90
2018-07-27T01:43:36.270Z,99.90
2018-07-27T01:46:06.149Z,99.90
2018-07-27T01:48:34.582Z,99.90
2018-07-27T01:51:03.062Z,99.90
2018-07-27T01:53:31.629Z,99.90
2018-07-27T01:56:00.050Z,99.90
2018-07-27T01:58:28.793Z,99.90
2018-07-27T02:00:57.541Z,99.90
2018-07-27T02:03:25.929Z,99.90
2018-07-27T02:05:54.687Z,99.90
2018-07-27T02:08:23.277Z,99.90
2018-07-27T02:10:51.684Z,99.90
2018-07-27T02:13:20.456Z,99.90
2018-07-27T02:15:48.839Z,99.90
2018-07-27T02:18:17.248Z,99.60
2018-07-27T02:20:45.821Z,99.80
2018-07-27T02:23:14.209Z,97.90
2018-07-27T02:25:42.736Z,98.10
2018-07-27T02:28:11.192Z,97.60
2018-07-27T02:30:39.597Z,95.70
2018-07-27T02:33:07.993Z,93.20
2018-07-27T02:35:36.990Z,92.60
2018-07-27T02:38:06.507Z,90.90
2018-07-27T02:40:34.925Z,90.70
2018-07-27T02:43:03.685Z,89.10
2018-07-27T02:45:32.200Z,88.80
2018-07-27T02:48:00.605Z,85.90
2018-07-27T02:50:29.045Z,84.40
2018-07-27T02:52:57.539Z,86.20
2018-07-27T02:55:25.957Z,85.50
2018-07-27T02:57:54.389Z,82.10
2018-07-27T03:00:22.788Z,81.90
2018-07-27T03:02:51.202Z,80.70
2018-07-27T03:05:19.661Z,79.90
2018-07-27T03:07:48.160Z,84.10
2018-07-27T03:10:16.592Z,84.80
2018-07-27T03:12:44.994Z,85.10
2018-07-27T03:15:13.384Z,84.30
2018-07-27T03:17:41.818Z,87.40
2018-07-27T03:20:10.252Z,88.00
2018-07-27T03:22:38.657Z,86.80
2018-07-27T03:25:07.354Z,90.40
2018-07-27T03:27:35.767Z,89.20
2018-07-27T03:30:04.840Z,90.00
2018-07-27T03:32:33.333Z,89.50
2018-07-27T03:35:01.746Z,90.30
2018-07-27T03:37:30.221Z,90.60
2018-07-27T03:39:58.653Z,91.00
2018-07-27T03:42:27.110Z,90.70
2018-07-27T03:44:55.537Z,91.10
2018-07-27T03:47:23.939Z,91.10
2018-07-27T03:49:53.349Z,88.80
2018-07-27T03:52:21.773Z,91.10
2018-07-27T03:54:50.573Z,91.10
2018-07-27T03:57:18.980Z,91.90
2018-07-27T03:59:47.376Z,92.30
2018-07-27T04:02:15.844Z,92.00
2018-07-27T04:04:44.435Z,92.00
2018-07-27T04:07:12.945Z,92.10
2018-07-27T04:09:41.562Z,91.70
2018-07-27T04:12:10.165Z,92.00
2018-07-27T04:17:06.754Z,92.60
2018-07-27T04:19:35.213Z,92.10
2018-07-27T04:22:03.771Z,92.30
2018-07-27T04:24:32.147Z,93.40
2018-07-27T04:27:00.566Z,92.40
2018-07-27T04:29:29.181Z,92.70
2018-07-27T04:31:57.582Z,92.20
2018-07-27T04:34:25.997Z,92.70
2018-07-27T04:36:54.397Z,93.60
2018-07-27T04:39:22.858Z,93.50
2018-07-27T04:41:57.838Z,93.80
2018-07-27T04:44:26.297Z,93.40
2018-07-27T04:46:54.697Z,93.30
2018-07-27T04:49:23.116Z,92.70
2018-07-27T04:51:51.711Z,93.40
2018-07-27T04:54:20.098Z,93.50
2018-07-27T04:56:48.592Z,92.50
2018-07-27T04:59:17.196Z,92.40
2018-07-27T05:01:45.733Z,92.80
2018-07-27T05:04:14.899Z,92.10
2018-07-27T05:06:44.250Z,92.40
2018-07-27T05:09:18.453Z,91.60
2018-07-27T05:11:47.025Z,91.70
2018-07-27T05:14:15.607Z,92.00
2018-07-27T05:16:44.141Z,88.20
2018-07-27T05:19:12.560Z,85.50
2018-07-27T05:21:41.361Z,88.60
2018-07-27T05:24:09.814Z,88.90
2018-07-27T05:26:38.297Z,90.90
2018-07-27T05:29:07.092Z,91.10
2018-07-27T05:31:35.497Z,90.00
2018-07-27T05:34:04.278Z,87.60
2018-07-27T05:36:32.691Z,83.40
2018-07-27T05:39:01.082Z,83.90
2018-07-27T05:41:29.570Z,84.20
2018-07-27T05:43:57.969Z,82.50
2018-07-27T05:46:26.365Z,79.30
2018-07-27T05:48:54.774Z,77.70
2018-07-27T05:51:23.150Z,76.50
2018-07-27T05:53:51.757Z,74.90
2018-07-27T05:56:20.242Z,74.30
2018-07-27T05:58:48.682Z,74.10
2018-07-27T06:01:17.155Z,74.80
2018-07-27T06:03:46.399Z,74.30
2018-07-27T06:06:14.825Z,75.00
2018-07-27T06:08:43.301Z,73.20
2018-07-27T06:11:12.249Z,73.10
2018-07-27T06:13:40.865Z,72.60
2018-07-27T06:16:10.105Z,73.30
2018-07-27T06:18:38.526Z,71.90
2018-07-27T06:21:13.397Z,70.80
2018-07-27T06:23:42.551Z,70.50
2018-07-27T06:26:11.249Z,69.80
2018-07-27T06:28:39.679Z,68.80
2018-07-27T06:31:08.417Z,70.50
2018-07-27T06:33:36.842Z,71.60
2018-07-27T06:36:05.642Z,68.50
2018-07-27T06:38:34.417Z,68.60
2018-07-27T06:41:03.253Z,67.50
2018-07-27T06:43:31.820Z,64.10
2018-07-27T06:46:00.324Z,64.30
2018-07-27T06:48:28.725Z,63.60
2018-07-27T06:50:57.145Z,63.70
2018-07-27T06:53:26.285Z,63.40
2018-07-27T06:55:54.764Z,59.80
2018-07-27T06:58:23.181Z,60.40
2018-07-27T07:00:51.597Z,61.20
2018-07-27T07:03:20.064Z,62.00
2018-07-27T07:05:48.760Z,60.40
2018-07-27T07:08:17.172Z,60.00
2018-07-27T07:10:45.689Z,61.10
2018-07-27T07:13:14.225Z,63.90
2018-07-27T07:15:42.950Z,66.10
2018-07-27T07:18:11.329Z,65.40
2018-07-27T07:20:39.748Z,66.10
2018-07-27T07:23:08.214Z,66.10
2018-07-27T07:25:36.843Z,67.10
2018-07-27T07:28:05.965Z,65.50
2018-07-27T07:30:34.333Z,66.30
2018-07-27T07:33:02.780Z,66.90
2018-07-27T07:35:31.404Z,65.30
2018-07-27T07:37:59.797Z,64.60
2018-07-27T07:40:28.217Z,65.20
2018-07-27T07:42:56.580Z,63.00
2018-07-27T07:45:25.022Z,62.00
2018-07-27T07:47:53.405Z,59.00
2018-07-27T07:50:21.790Z,60.00
2018-07-27T07:52:50.174Z,58.20
2018-07-27T07:55:18.578Z,58.90
2018-07-27T07:57:47.029Z,59.20
2018-07-27T08:00:15.460Z,57.00
2018-07-27T08:02:43.858Z,54.40
2018-07-27T08:05:12.341Z,53.90
2018-07-27T08:07:40.764Z,54.30
2018-07-27T08:10:09.166Z,54.40
2018-07-27T08:12:37.600Z,54.50
2018-07-27T08:15:05.993Z,54.70
2018-07-27T08:17:34.420Z,53.80
2018-07-27T08:20:02.893Z,53.00
2018-07-27T08:22:31.343Z,55.70
2018-07-27T08:24:59.713Z,53.80
2018-07-27T08:27:28.118Z,54.30
2018-07-27T08:29:56.501Z,54.30
2018-07-27T08:32:24.905Z,55.30
2018-07-27T08:34:53.290Z,54.00
2018-07-27T08:37:21.685Z,53.90
2018-07-27T08:39:50.697Z,54.60
2018-07-27T08:42:19.445Z,56.10
2018-07-27T08:44:47.920Z,53.50
2018-07-27T08:47:16.386Z,54.30
2018-07-27T08:49:44.976Z,53.00
2018-07-27T08:52:13.408Z,52.80
2018-07-27T08:54:41.833Z,52.00
2018-07-27T08:57:10.221Z,51.80
2018-07-27T08:59:38.636Z,51.90
2018-07-27T09:02:07.100Z,51.20
2018-07-27T09:04:35.569Z,51.60
2018-07-27T09:07:04.348Z,51.60
2018-07-27T09:09:32.744Z,52.10
2018-07-27T09:12:01.156Z,52.00
2018-07-27T09:14:29.539Z,52.60
2018-07-27T09:16:57.933Z,51.50
2018-07-27T09:19:26.326Z,52.40
2018-07-27T09:21:55.096Z,52.40
2018-07-27T09:24:23.621Z,51.70
2018-07-27T09:26:52.100Z,52.00
2018-07-27T09:29:20.501Z,51.80
2018-07-27T09:31:49.013Z,52.40
2018-07-27T09:34:17.452Z,52.50
2018-07-27T09:36:46.029Z,52.40
2018-07-27T09:39:14.466Z,52.40
2018-07-27T09:41:42.832Z,51.40
2018-07-27T09:44:11.250Z,51.70
2018-07-27T09:46:39.677Z,51.80
2018-07-27T09:49:08.257Z,52.40
2018-07-27T09:51:36.671Z,52.90
2018-07-27T09:54:05.318Z,52.90
2018-07-27T09:56:33.720Z,50.80
2018-07-27T09:59:02.162Z,52.00
2018-07-27T10:01:30.591Z,51.20
2018-07-27T10:03:59.108Z,52.10
2018-07-27T10:06:27.812Z,50.20
2018-07-27T10:08:56.234Z,49.80
2018-07-27T10:11:24.685Z,49.90
2018-07-27T10:13:53.103Z,50.00
2018-07-27T10:16:21.522Z,50.20
2018-07-27T10:18:49.961Z,49.30
2018-07-27T10:21:18.381Z,49.20
2018-07-27T10:23:46.812Z,50.20
2018-07-27T10:26:15.247Z,49.20
2018-07-27T10:28:43.697Z,49.20
2018-07-27T10:31:12.123Z,49.00
2018-07-27T10:33:40.758Z,49.10
2018-07-27T10:36:09.208Z,49.20
2018-07-27T10:38:37.670Z,48.50
2018-07-27T10:41:06.400Z,47.80
2018-07-27T10:43:35.135Z,46.90
2018-07-27T10:46:03.684Z,47.10
2018-07-27T10:48:32.173Z,46.90
2018-07-27T10:51:00.730Z,47.40
2018-07-27T10:53:29.140Z,46.50
2018-07-27T10:55:57.925Z,47.30
2018-07-27T10:58:26.320Z,46.80
2018-07-27T11:00:54.738Z,47.40
2018-07-27T11:03:23.132Z,46.90
2018-07-27T11:05:51.646Z,47.00
2018-07-27T11:08:20.086Z,47.10
2018-07-27T11:10:49.216Z,47.40
2018-07-27T11:13:17.658Z,45.40
2018-07-27T11:15:46.085Z,43.50
2018-07-27T11:18:14.513Z,43.10
2018-07-27T11:20:42.980Z,42.30
2018-07-27T11:23:11.413Z,42.70
2018-07-27T11:25:39.862Z,43.20
2018-07-27T11:28:08.486Z,41.30
2018-07-27T11:30:36.881Z,42.40
2018-07-27T11:33:05.312Z,43.00
2018-07-27T11:35:33.772Z,42.70
2018-07-27T11:38:02.509Z,43.20
2018-07-27T11:40:30.904Z,43.30
2018-07-27T11:42:59.343Z,42.30
2018-07-27T11:45:27.743Z,42.60
2018-07-27T11:47:56.167Z,42.80
2018-07-27T11:50:24.595Z,43.30
2018-07-27T11:52:53.229Z,44.10
2018-07-27T11:55:21.637Z,43.30
2018-07-27T11:57:50.041Z,43.50
2018-07-27T12:00:18.454Z,44.90
2018-07-27T12:02:47.048Z,44.50
2018-07-27T12:05:15.465Z,44.80
2018-07-27T12:07:43.912Z,44.60
2018-07-27T12:10:12.329Z,43.80
2018-07-27T12:12:40.761Z,43.90
2018-07-27T12:15:09.488Z,44.10
2018-07-27T12:17:37.853Z,43.40
2018-07-27T12:20:06.368Z,44.20
2018-07-27T12:22:34.762Z,44.20
2018-07-27T12:25:03.515Z,44.00
2018-07-27T12:27:31.921Z,44.40
2018-07-27T12:30:00.428Z,44.90
2018-07-27T12:32:28.965Z,44.20
2018-07-27T12:34:57.373Z,44.50
2018-07-27T12:37:25.777Z,45.10
2018-07-27T12:39:54.168Z,45.00
2018-07-27T12:42:22.552Z,46.40
2018-07-27T12:44:50.996Z,47.00
2018-07-27T12:47:19.645Z,45.50
2018-07-27T12:49:48.057Z,45.00
2018-07-27T12:52:16.472Z,45.80
2018-07-27T12:54:44.881Z,45.40
2018-07-27T12:57:13.261Z,44.80
2018-07-27T12:59:41.648Z,45.40
2018-07-27T13:02:10.097Z,45.50
2018-07-27T13:04:38.522Z,44.10
2018-07-27T13:07:06.949Z,45.40
2018-07-27T13:09:35.349Z,45.20
2018-07-27T13:12:04.116Z,44.80
2018-07-27T13:17:00.933Z,45.90
2018-07-27T13:19:29.349Z,44.70
2018-07-27T13:21:58.166Z,44.40
2018-07-27T13:26:55.409Z,44.20
2018-07-27T13:29:23.884Z,45.10
2018-07-27T13:31:53.890Z,46.20
2018-07-27T13:34:40.557Z,46.00
2018-07-27T13:37:09.126Z,45.20
2018-07-27T13:39:38.140Z,44.80
2018-07-27T13:42:07.596Z,45.10
2018-07-27T13:44:37.118Z,45.20
2018-07-27T13:47:06.098Z,46.00
2018-07-27T13:49:34.549Z,46.20
2018-07-27T13:52:03.076Z,46.20
2018-07-27T13:54:32.768Z,45.80
2018-07-27T13:57:02.848Z,46.80
2018-07-27T13:59:31.276Z,47.20
2018-07-27T14:01:59.721Z,46.40
2018-07-27T14:04:28.204Z,46.20
2018-07-27T14:06:58.545Z,46.50
2018-07-27T14:09:27.997Z,47.60
2018-07-27T14:11:56.524Z,47.10
2018-07-27T14:14:25.057Z,46.40
2018-07-27T14:16:53.593Z,47.30
2018-07-27T14:19:22.416Z,47.40
2018-07-27T14:21:50.880Z,47.10
2018-07-27T14:24:19.477Z,46.60
2018-07-27T14:26:47.887Z,46.20
2018-07-27T14:29:16.449Z,47.20
2018-07-27T14:31:45.076Z,46.60
2018-07-27T14:34:13.495Z,47.90
2018-07-27T14:36:41.960Z,47.60
2018-07-27T14:39:12.447Z,47.40
2018-07-27T14:41:41.530Z,46.40
2018-07-27T14:44:09.981Z,46.10
2018-07-27T14:46:38.735Z,46.70
2018-07-27T14:49:11.608Z,46.60
2018-07-27T14:51:40.600Z,47.00
2018-07-27T14:54:10.665Z,46.60
2018-07-27T14:56:39.633Z,47.30
2018-07-27T15:01:36.972Z,47.20
2018-07-27T15:04:05.650Z,46.20
2018-07-27T15:06:34.204Z,47.60
2018-07-27T15:09:02.675Z,47.90
2018-07-27T15:11:31.121Z,46.80
2018-07-27T15:13:59.648Z,46.70
2018-07-27T15:16:28.064Z,46.10
2018-07-27T15:21:24.825Z,46.70
2018-07-27T15:23:53.309Z,46.90
2018-07-27T15:26:21.728Z,46.40
2018-07-27T15:28:50.212Z,47.00
2018-07-27T15:31:18.640Z,45.90
2018-07-27T15:33:47.060Z,46.20
2018-07-27T15:36:15.516Z,46.20
2018-07-27T15:38:44.106Z,46.60
2018-07-27T15:41:12.515Z,47.20
2018-07-27T15:43:41.029Z,46.30
2018-07-27T15:46:09.977Z,46.80
2018-07-27T15:48:38.401Z,47.30
2018-07-27T15:51:07.249Z,47.00
2018-07-27T15:53:35.701Z,46.40
2018-07-27T15:56:04.478Z,46.20
2018-07-27T15:58:32.959Z,46.40
2018-07-27T16:01:01.425Z,46.20
2018-07-27T16:03:29.886Z,46.20
2018-07-27T16:05:58.473Z,47.40
2018-07-27T16:08:26.906Z,46.20
2018-07-27T16:10:55.715Z,46.40
2018-07-27T16:13:24.177Z,46.20
2018-07-27T16:15:52.692Z,46.90
2018-07-27T16:18:21.308Z,46.60
2018-07-27T16:20:50.085Z,46.10
2018-07-27T16:23:18.502Z,46.30
2018-07-27T16:25:47.253Z,46.80
2018-07-27T16:28:15.728Z,47.30
2018-07-27T16:30:45.137Z,46.90
2018-07-27T16:33:13.881Z,46.90
2018-07-27T16:35:42.341Z,47.20
2018-07-27T16:38:10.817Z,47.20
2018-07-27T16:40:39.259Z,46.90
2018-07-27T16:43:07.734Z,46.80
2018-07-27T16:45:36.265Z,46.90
2018-07-27T16:48:04.977Z,46.80
2018-07-27T16:50:33.729Z,46.90
2018-07-27T16:53:02.163Z,46.90
2018-07-27T16:55:30.774Z,46.70
2018-07-27T16:57:59.221Z,46.40
2018-07-27T17:00:27.618Z,46.80
2018-07-27T17:02:56.081Z,47.50
2018-07-27T17:05:24.544Z,47.20
2018-07-27T17:07:52.968Z,47.60
2018-07-27T17:10:21.391Z,47.20
2018-07-27T17:12:49.856Z,47.90
2018-07-27T17:15:18.829Z,47.40
2018-07-27T17:17:47.517Z,47.50
2018-07-27T17:20:15.919Z,47.10
2018-07-27T17:22:44.449Z,46.80
2018-07-27T17:25:13.238Z,47.40
2018-07-27T17:27:42.220Z,47.60
2018-07-27T17:32:39.753Z,47.40
2018-07-27T17:35:08.913Z,47.80
2018-07-27T17:37:37.676Z,47.70
2018-07-27T17:40:06.918Z,47.10
2018-07-27T17:42:35.501Z,47.80
2018-07-27T17:45:04.066Z,47.80
2018-07-27T17:47:32.593Z,47.70
2018-07-27T17:50:01.056Z,47.90
2018-07-27T17:52:29.498Z,47.50
2018-07-27T17:54:58.018Z,47.60
2018-07-27T17:57:26.654Z,47.20
2018-07-27T17:59:55.122Z,47.90
2018-07-27T18:02:23.538Z,47.50
2018-07-27T18:04:51.992Z,48.00
2018-07-27T18:07:23.680Z,47.60
2018-07-27T18:09:52.719Z,47.70
2018-07-27T18:12:21.185Z,48.00
2018-07-27T18:14:49.936Z,48.00
2018-07-27T18:17:18.354Z,48.40
2018-07-27T18:19:46.783Z,47.70
2018-07-27T18:22:15.576Z,48.00
2018-07-27T18:24:44.022Z,47.80
2018-07-27T18:27:12.478Z,48.00
2018-07-27T18:29:40.905Z,48.40
2018-07-27T18:32:09.682Z,47.70
2018-07-27T18:34:38.108Z,47.70
2018-07-27T18:37:06.636Z,48.30
2018-07-27T18:39:35.086Z,48.00
2018-07-27T18:42:04.085Z,48.00
2018-07-27T18:44:32.625Z,48.50
2018-07-27T18:47:01.238Z,48.50
2018-07-27T18:49:29.654Z,48.30
2018-07-27T18:51:58.101Z,48.60
2018-07-27T18:54:26.618Z,48.90
2018-07-27T18:56:55.013Z,49.20
2018-07-27T18:59:23.864Z,49.20
2018-07-27T19:01:52.338Z,49.20
2018-07-27T19:04:20.720Z,49.90
2018-07-27T19:06:49.155Z,49.80
2018-07-27T19:09:17.670Z,50.10
2018-07-27T19:11:46.177Z,50.20
2018-07-27T19:14:14.624Z,51.20
2018-07-27T19:16:43.065Z,50.90
2018-07-27T19:19:11.502Z,51.50
2018-07-27T19:21:39.922Z,50.80
2018-07-27T19:24:08.479Z,51.10
2018-07-27T19:26:37.028Z,51.40
2018-07-27T19:29:05.562Z,51.10
2018-07-27T19:31:34.095Z,52.90
2018-07-27T19:34:02.692Z,53.20
2018-07-27T19:36:31.345Z,56.10
2018-07-27T19:38:59.860Z,54.80
2018-07-27T19:41:28.507Z,56.10
2018-07-27T19:43:57.405Z,55.10
2018-07-27T19:46:25.997Z,54.10
2018-07-27T19:48:54.600Z,54.30
2018-07-27T19:51:23.203Z,54.80
2018-07-27T19:53:51.718Z,54.50
2018-07-27T19:56:20.397Z,56.00
2018-07-27T19:58:48.988Z,56.30
2018-07-27T20:01:17.456Z,56.70
2018-07-27T20:03:45.936Z,55.40
2018-07-27T20:06:14.543Z,55.20
2018-07-27T20:08:43.131Z,54.80
2018-07-27T20:11:11.663Z,54.70
2018-07-27T20:13:40.172Z,54.70
2018-07-27T20:16:08.589Z,54.60
2018-07-27T20:18:36.997Z,54.60
2018-07-27T20:21:05.526Z,54.80
2018-07-27T20:23:33.961Z,54.90
2018-07-27T20:26:02.339Z,55.30
2018-07-27T20:28:30.745Z,55.70
2018-07-27T20:30:59.358Z,56.10
2018-07-27T20:33:27.776Z,58.00
2018-07-27T20:35:56.307Z,59.70
2018-07-27T20:38:24.816Z,59.80
2018-07-27T20:40:53.267Z,60.60
2018-07-27T20:43:21.697Z,60.60
2018-07-27T20:45:50.169Z,60.80
2018-07-27T20:48:18.610Z,60.70
2018-07-27T20:50:47.440Z,61.20
2018-07-27T20:53:17.911Z,61.70
2018-07-27T20:55:46.348Z,62.60
2018-07-27T20:58:14.752Z,63.20
2018-07-27T21:00:43.215Z,64.30
2018-07-27T21:03:11.681Z,64.20
2018-07-27T21:05:40.134Z,64.60
2018-07-27T21:08:08.553Z,64.30
2018-07-27T21:10:36.954Z,64.20
2018-07-27T21:13:05.369Z,64.10
2018-07-27T21:15:33.838Z,64.40
2018-07-27T21:18:02.245Z,66.00
2018-07-27T21:20:30.710Z,66.30
2018-07-27T21:22:59.141Z,66.60
2018-07-27T21:25:27.833Z,68.10
2018-07-27T21:27:56.216Z,67.40
2018-07-27T21:30:24.670Z,68.00
2018-07-27T21:32:57.460Z,67.10
2018-07-27T21:35:27.673Z,67.20
2018-07-27T21:37:56.085Z,68.50
2018-07-27T21:40:24.949Z,68.90
2018-07-27T21:42:53.727Z,70.70
2018-07-27T21:45:22.605Z,69.70
2018-07-27T21:47:52.699Z,70.80
2018-07-27T21:50:21.706Z,70.50
2018-07-27T21:52:50.780Z,69.20
2018-07-27T21:55:20.222Z,69.20
2018-07-27T21:57:52.359Z,69.70
2018-07-27T22:00:35.757Z,69.30
2018-07-27T22:05:59.582Z,70.80
2018-07-27T22:08:34.556Z,70.90
2018-07-27T22:11:04.401Z,71.70
2018-07-27T22:13:33.713Z,71.70
2018-07-27T22:16:04.710Z,71.90
2018-07-27T22:18:34.566Z,72.20
2018-07-27T22:21:06.713Z,72.50
2018-07-27T22:23:35.584Z,71.40
2018-07-27T22:26:05.824Z,71.20
2018-07-27T22:28:34.779Z,71.90
2018-07-27T22:31:09.133Z,70.30
2018-07-27T22:33:39.902Z,72.50
2018-07-27T22:36:11.271Z,71.60
2018-07-27T22:38:41.437Z,68.60
2018-07-27T22:41:14.273Z,69.40
2018-07-27T22:43:53.267Z,71.40
2018-07-27T22:46:23.840Z,70.00
2018-07-27T22:48:55.401Z,69.60
2018-07-27T22:51:29.168Z,68.90
2018-07-27T22:54:02.063Z,67.20
2018-07-27T22:56:34.629Z,65.90
2018-07-27T22:59:04.723Z,65.40
2018-07-27T23:01:34.169Z,64.40
2018-07-27T23:04:04.239Z,65.80
2018-07-27T23:06:33.934Z,65.20
2018-07-27T23:09:04.634Z,64.10
2018-07-27T23:11:34.904Z,65.00
2018-07-27T23:14:03.836Z,64.90
2018-07-27T23:16:34.760Z,64.30
2018-07-27T23:19:04.562Z,64.80
2018-07-27T23:21:34.530Z,65.30
2018-07-27T23:24:03.735Z,63.80
2018-07-27T23:26:34.408Z,64.60
2018-07-27T23:29:04.296Z,64.60
2018-07-27T23:31:35.331Z,64.20
2018-07-27T23:34:10.290Z,64.80
2018-07-27T23:36:41.435Z,64.30
2018-07-27T23:39:14.192Z,64.20
2018-07-27T23:41:44.653Z,63.80
2018-07-27T23:44:17.544Z,63.80
2018-07-27T23:46:47.649Z,64.60
2018-07-27T23:49:20.141Z,64.90
2018-07-27T23:51:55.938Z,65.00
2018-07-27T23:54:30.862Z,64.00
2018-07-27T23:57:07.448Z,64.40
2018-07-27T23:59:37.674Z,64.80
